sensor_id;sensor_type;location;lat;lon;timestamp;P1;durP1;ratioP1;P2;durP2;ratioP2
69991;SDS011;57332;51.320;-0.580;2022-09-13T00:01:18;11.20;;;5.22;;
69991;SDS011;57332;51.320;-0.580;2022-09-13T00:03:45;9.30;;;5.47;;
69991;SDS011;57332;51.320;-0.580;2022-09-13T00:06:14;8.43;;;5.00;;
69991;SDS011;57332;51.320;-0.580;2022-09-13T00:08:44;7.85;;;4.95;;
69991;SDS011;57332;51.320;-0.580;2022-09-13T00:13:42;9.35;;;4.88;;
69991;SDS011;57332;51.320;-0.580;2022-09-13T00:16:18;9.75;;;5.20;;
69991;SDS011;57332;51.320;-0.580;2022-09-13T00:18:45;7.75;;;5.07;;
69991;SDS011;57332;51.320;-0.580;2022-09-13T00:21:14;9.65;;;4.93;;
69991;SDS011;57332;51.320;-0.580;2022-09-13T00:23:48;9.35;;;4.85;;
69991;SDS011;57332;51.320;-0.580;2022-09-13T00:26:24;10.27;;;5.20;;
69991;SDS011;57332;51.320;-0.580;2022-09-13T00:28:52;8.52;;;5.35;;
69991;SDS011;57332;51.320;-0.580;2022-09-13T00:31:24;7.70;;;4.82;;
69991;SDS011;57332;51.320;-0.580;2022-09-13T00:33:57;7.75;;;4.85;;
69991;SDS011;57332;51.320;-0.580;2022-09-13T00:36:24;9.20;;;5.22;;
69991;SDS011;57332;51.320;-0.580;2022-09-13T00:38:52;9.52;;;5.07;;
69991;SDS011;57332;51.320;-0.580;2022-09-13T00:41:22;8.30;;;5.40;;
69991;SDS011;57332;51.320;-0.580;2022-09-13T00:43:56;7.53;;;4.45;;
69991;SDS011;57332;51.320;-0.580;2022-09-13T00:46:26;10.10;;;4.85;;
69991;SDS011;57332;51.320;-0.580;2022-09-13T00:48:59;9.05;;;5.45;;
69991;SDS011;57332;51.320;-0.580;2022-09-13T00:51:29;8.82;;;5.10;;
69991;SDS011;57332;51.320;-0.580;2022-09-13T00:54:00;7.07;;;4.70;;
69991;SDS011;57332;51.320;-0.580;2022-09-13T00:56:34;8.27;;;4.93;;
69991;SDS011;57332;51.320;-0.580;2022-09-13T00:59:24;9.20;;;5.38;;
69991;SDS011;57332;51.320;-0.580;2022-09-13T01:01:55;8.75;;;5.10;;
69991;SDS011;57332;51.320;-0.580;2022-09-13T01:06:56;9.15;;;5.45;;
69991;SDS011;57332;51.320;-0.580;2022-09-13T01:09:28;9.70;;;5.32;;
69991;SDS011;57332;51.320;-0.580;2022-09-13T01:12:08;9.32;;;5.15;;
69991;SDS011;57332;51.320;-0.580;2022-09-13T01:14:43;8.93;;;6.00;;
69991;SDS011;57332;51.320;-0.580;2022-09-13T01:17:12;8.63;;;5.22;;
69991;SDS011;57332;51.320;-0.580;2022-09-13T01:19:43;10.68;;;5.72;;
69991;SDS011;57332;51.320;-0.580;2022-09-13T01:22:29;10.95;;;5.72;;
69991;SDS011;57332;51.320;-0.580;2022-09-13T01:30:35;10.15;;;5.90;;
69991;SDS011;57332;51.320;-0.580;2022-09-13T01:35:37;10.63;;;5.78;;
69991;SDS011;57332;51.320;-0.580;2022-09-13T01:43:53;10.43;;;5.55;;
69991;SDS011;57332;51.320;-0.580;2022-09-13T01:46:17;9.27;;;5.13;;
69991;SDS011;57332;51.320;-0.580;2022-09-13T02:04:23;8.73;;;5.60;;
69991;SDS011;57332;51.320;-0.580;2022-09-13T02:07:06;11.02;;;6.03;;
69991;SDS011;57332;51.320;-0.580;2022-09-13T02:09:36;8.73;;;5.50;;
69991;SDS011;57332;51.320;-0.580;2022-09-13T02:12:06;11.77;;;6.78;;
69991;SDS011;57332;51.320;-0.580;2022-09-13T02:14:42;9.45;;;5.53;;
69991;SDS011;57332;51.320;-0.580;2022-09-13T02:17:17;10.98;;;5.82;;
69991;SDS011;57332;51.320;-0.580;2022-09-13T02:19:56;9.23;;;5.45;;
69991;SDS011;57332;51.320;-0.580;2022-09-13T02:22:31;11.77;;;5.93;;
69991;SDS011;57332;51.320;-0.580;2022-09-13T02:25:05;13.13;;;6.50;;
69991;SDS011;57332;51.320;-0.580;2022-09-13T02:27:34;12.35;;;5.95;;
69991;SDS011;57332;51.320;-0.580;2022-09-13T02:30:05;12.93;;;7.18;;
69991;SDS011;57332;51.320;-0.580;2022-09-13T02:32:39;9.27;;;5.72;;
69991;SDS011;57332;51.320;-0.580;2022-09-13T02:35:25;9.82;;;5.63;;
69991;SDS011;57332;51.320;-0.580;2022-09-13T02:37:57;7.55;;;5.45;;
69991;SDS011;57332;51.320;-0.580;2022-09-13T02:40:27;12.05;;;6.00;;
69991;SDS011;57332;51.320;-0.580;2022-09-13T02:43:13;9.30;;;5.15;;
69991;SDS011;57332;51.320;-0.580;2022-09-13T02:45:43;9.30;;;5.07;;
69991;SDS011;57332;51.320;-0.580;2022-09-13T02:48:55;12.43;;;5.78;;
69991;SDS011;57332;51.320;-0.580;2022-09-13T02:51:13;8.25;;;5.43;;
69991;SDS011;57332;51.320;-0.580;2022-09-13T02:59:21;8.70;;;4.50;;
69991;SDS011;57332;51.320;-0.580;2022-09-13T03:01:45;8.77;;;4.82;;
69991;SDS011;57332;51.320;-0.580;2022-09-13T03:04:13;10.18;;;4.70;;
69991;SDS011;57332;51.320;-0.580;2022-09-13T03:06:40;8.27;;;5.10;;
69991;SDS011;57332;51.320;-0.580;2022-09-13T03:09:08;8.05;;;4.85;;
69991;SDS011;57332;51.320;-0.580;2022-09-13T03:11:48;7.88;;;4.40;;
69991;SDS011;57332;51.320;-0.580;2022-09-13T03:14:33;7.22;;;4.95;;
69991;SDS011;57332;51.320;-0.580;2022-09-13T03:17:12;9.77;;;4.50;;
69991;SDS011;57332;51.320;-0.580;2022-09-13T03:27:24;8.80;;;4.65;;
69991;SDS011;57332;51.320;-0.580;2022-09-13T03:29:57;9.77;;;4.43;;
69991;SDS011;57332;51.320;-0.580;2022-09-13T03:38:04;7.53;;;4.10;;
69991;SDS011;57332;51.320;-0.580;2022-09-13T03:43:24;8.60;;;4.85;;
69991;SDS011;57332;51.320;-0.580;2022-09-13T03:45:56;9.23;;;4.05;;
69991;SDS011;57332;51.320;-0.580;2022-09-13T03:48:25;8.10;;;4.60;;
69991;SDS011;57332;51.320;-0.580;2022-09-13T03:50:53;6.53;;;3.60;;
69991;SDS011;57332;51.320;-0.580;2022-09-13T03:53:24;10.13;;;4.07;;
69991;SDS011;57332;51.320;-0.580;2022-09-13T03:55:51;6.30;;;4.50;;
69991;SDS011;57332;51.320;-0.580;2022-09-13T03:58:24;6.47;;;4.40;;
69991;SDS011;57332;51.320;-0.580;2022-09-13T04:00:54;7.68;;;4.00;;
69991;SDS011;57332;51.320;-0.580;2022-09-13T04:03:31;9.38;;;4.60;;
69991;SDS011;57332;51.320;-0.580;2022-09-13T04:05:58;5.70;;;3.60;;
69991;SDS011;57332;51.320;-0.580;2022-09-13T04:08:28;4.95;;;3.45;;
69991;SDS011;57332;51.320;-0.580;2022-09-13T04:11:00;4.85;;;3.15;;
69991;SDS011;57332;51.320;-0.580;2022-09-13T04:13:27;6.18;;;3.20;;
69991;SDS011;57332;51.320;-0.580;2022-09-13T04:16:01;6.00;;;3.63;;
69991;SDS011;57332;51.320;-0.580;2022-09-13T04:18:29;6.80;;;3.30;;
69991;SDS011;57332;51.320;-0.580;2022-09-13T04:20:56;5.70;;;3.10;;
69991;SDS011;57332;51.320;-0.580;2022-09-13T04:23:24;4.82;;;3.00;;
69991;SDS011;57332;51.320;-0.580;2022-09-13T04:25:51;4.55;;;2.83;;
69991;SDS011;57332;51.320;-0.580;2022-09-13T04:28:20;4.97;;;3.30;;
69991;SDS011;57332;51.320;-0.580;2022-09-13T04:33:25;5.03;;;3.10;;
69991;SDS011;57332;51.320;-0.580;2022-09-13T04:35:57;6.32;;;3.95;;
69991;SDS011;57332;51.320;-0.580;2022-09-13T04:38:25;7.68;;;4.47;;
69991;SDS011;57332;51.320;-0.580;2022-09-13T04:40:55;7.00;;;4.50;;
69991;SDS011;57332;51.320;-0.580;2022-09-13T04:45:58;6.57;;;4.05;;
69991;SDS011;57332;51.320;-0.580;2022-09-13T04:48:26;7.10;;;4.43;;
69991;SDS011;57332;51.320;-0.580;2022-09-13T04:50:59;6.25;;;4.43;;
69991;SDS011;57332;51.320;-0.580;2022-09-13T04:53:26;6.68;;;4.80;;
69991;SDS011;57332;51.320;-0.580;2022-09-13T04:56:00;6.32;;;4.63;;
69991;SDS011;57332;51.320;-0.580;2022-09-13T04:58:32;6.93;;;4.63;;
69991;SDS011;57332;51.320;-0.580;2022-09-13T05:01:04;6.72;;;4.35;;
69991;SDS011;57332;51.320;-0.580;2022-09-13T05:03:35;6.70;;;4.80;;
69991;SDS011;57332;51.320;-0.580;2022-09-13T05:06:05;7.65;;;4.60;;
69991;SDS011;57332;51.320;-0.580;2022-09-13T05:08:33;6.30;;;4.40;;
69991;SDS011;57332;51.320;-0.580;2022-09-13T05:11:09;5.63;;;4.35;;
69991;SDS011;57332;51.320;-0.580;2022-09-13T05:13:37;6.97;;;4.82;;
69991;SDS011;57332;51.320;-0.580;2022-09-13T05:16:06;7.22;;;4.80;;
69991;SDS011;57332;51.320;-0.580;2022-09-13T05:18:36;7.05;;;5.18;;
69991;SDS011;57332;51.320;-0.580;2022-09-13T05:21:15;6.40;;;4.63;;
69991;SDS011;57332;51.320;-0.580;2022-09-13T05:23:42;7.63;;;4.75;;
69991;SDS011;57332;51.320;-0.580;2022-09-13T05:26:09;7.10;;;4.68;;
69991;SDS011;57332;51.320;-0.580;2022-09-13T05:28:36;6.05;;;4.93;;
69991;SDS011;57332;51.320;-0.580;2022-09-13T05:31:14;6.53;;;4.82;;
69991;SDS011;57332;51.320;-0.580;2022-09-13T05:33:55;7.40;;;4.25;;
69991;SDS011;57332;51.320;-0.580;2022-09-13T05:36:23;6.88;;;4.70;;
69991;SDS011;57332;51.320;-0.580;2022-09-13T05:38:50;6.50;;;4.75;;
69991;SDS011;57332;51.320;-0.580;2022-09-13T05:41:37;6.40;;;4.30;;
69991;SDS011;57332;51.320;-0.580;2022-09-13T05:44:04;5.40;;;4.10;;
69991;SDS011;57332;51.320;-0.580;2022-09-13T05:46:39;6.00;;;4.55;;
69991;SDS011;57332;51.320;-0.580;2022-09-13T05:49:06;5.50;;;4.22;;
69991;SDS011;57332;51.320;-0.580;2022-09-13T05:51:41;6.25;;;4.10;;
69991;SDS011;57332;51.320;-0.580;2022-09-13T05:54:11;5.13;;;4.00;;
69991;SDS011;57332;51.320;-0.580;2022-09-13T05:56:41;5.85;;;3.63;;
69991;SDS011;57332;51.320;-0.580;2022-09-13T05:59:16;6.15;;;4.13;;
69991;SDS011;57332;51.320;-0.580;2022-09-13T06:01:47;5.40;;;4.05;;
69991;SDS011;57332;51.320;-0.580;2022-09-13T06:04:14;5.97;;;4.53;;
69991;SDS011;57332;51.320;-0.580;2022-09-13T06:06:44;5.75;;;3.78;;
69991;SDS011;57332;51.320;-0.580;2022-09-13T06:09:12;5.07;;;4.38;;
69991;SDS011;57332;51.320;-0.580;2022-09-13T06:14:12;6.15;;;4.10;;
69991;SDS011;57332;51.320;-0.580;2022-09-13T06:16:40;4.80;;;3.85;;
69991;SDS011;57332;51.320;-0.580;2022-09-13T06:19:09;5.20;;;4.10;;
69991;SDS011;57332;51.320;-0.580;2022-09-13T06:21:36;5.13;;;4.28;;
69991;SDS011;57332;51.320;-0.580;2022-09-13T06:24:03;6.57;;;4.53;;
69991;SDS011;57332;51.320;-0.580;2022-09-13T06:26:30;5.68;;;4.00;;
69991;SDS011;57332;51.320;-0.580;2022-09-13T06:28:57;5.85;;;3.92;;
69991;SDS011;57332;51.320;-0.580;2022-09-13T06:31:27;6.00;;;4.55;;
69991;SDS011;57332;51.320;-0.580;2022-09-13T06:33:58;5.53;;;4.00;;
69991;SDS011;57332;51.320;-0.580;2022-09-13T06:36:37;5.97;;;4.75;;
69991;SDS011;57332;51.320;-0.580;2022-09-13T06:39:03;8.20;;;5.35;;
69991;SDS011;57332;51.320;-0.580;2022-09-13T06:41:32;8.25;;;5.18;;
69991;SDS011;57332;51.320;-0.580;2022-09-13T06:44:02;8.68;;;5.53;;
69991;SDS011;57332;51.320;-0.580;2022-09-13T06:46:33;8.27;;;5.60;;
69991;SDS011;57332;51.320;-0.580;2022-09-13T06:49:01;9.57;;;5.55;;
69991;SDS011;57332;51.320;-0.580;2022-09-13T06:51:29;7.40;;;5.07;;
69991;SDS011;57332;51.320;-0.580;2022-09-13T06:53:56;8.15;;;5.13;;
69991;SDS011;57332;51.320;-0.580;2022-09-13T06:56:25;10.45;;;5.82;;
69991;SDS011;57332;51.320;-0.580;2022-09-13T06:58:56;9.07;;;5.68;;
69991;SDS011;57332;51.320;-0.580;2022-09-13T07:01:24;7.88;;;5.50;;
69991;SDS011;57332;51.320;-0.580;2022-09-13T07:04:00;9.35;;;5.65;;
69991;SDS011;57332;51.320;-0.580;2022-09-13T07:06:34;9.65;;;5.50;;
69991;SDS011;57332;51.320;-0.580;2022-09-13T07:09:02;9.57;;;5.95;;
69991;SDS011;57332;51.320;-0.580;2022-09-13T07:11:35;9.75;;;6.53;;
69991;SDS011;57332;51.320;-0.580;2022-09-13T07:14:13;11.15;;;6.25;;
69991;SDS011;57332;51.320;-0.580;2022-09-13T07:16:40;12.25;;;7.10;;
69991;SDS011;57332;51.320;-0.580;2022-09-13T07:19:11;11.05;;;6.50;;
69991;SDS011;57332;51.320;-0.580;2022-09-13T07:21:41;12.18;;;6.68;;
69991;SDS011;57332;51.320;-0.580;2022-09-13T07:24:08;10.77;;;6.78;;
69991;SDS011;57332;51.320;-0.580;2022-09-13T07:26:35;12.57;;;7.30;;
69991;SDS011;57332;51.320;-0.580;2022-09-13T07:29:04;11.52;;;6.78;;
69991;SDS011;57332;51.320;-0.580;2022-09-13T07:31:35;13.10;;;7.85;;
69991;SDS011;57332;51.320;-0.580;2022-09-13T07:34:04;12.27;;;7.07;;
69991;SDS011;57332;51.320;-0.580;2022-09-13T07:36:31;11.85;;;6.85;;
69991;SDS011;57332;51.320;-0.580;2022-09-13T07:39:02;13.07;;;7.18;;
69991;SDS011;57332;51.320;-0.580;2022-09-13T07:41:32;11.70;;;6.63;;
69991;SDS011;57332;51.320;-0.580;2022-09-13T07:44:02;11.25;;;6.63;;
69991;SDS011;57332;51.320;-0.580;2022-09-13T07:46:31;11.82;;;5.90;;
69991;SDS011;57332;51.320;-0.580;2022-09-13T07:48:58;8.88;;;5.53;;
69991;SDS011;57332;51.320;-0.580;2022-09-13T07:51:27;8.70;;;5.57;;
69991;SDS011;57332;51.320;-0.580;2022-09-13T07:53:58;8.38;;;5.70;;
69991;SDS011;57332;51.320;-0.580;2022-09-13T07:56:29;7.60;;;4.63;;
69991;SDS011;57332;51.320;-0.580;2022-09-13T07:59:00;6.38;;;3.70;;
69991;SDS011;57332;51.320;-0.580;2022-09-13T08:01:28;6.03;;;2.80;;
69991;SDS011;57332;51.320;-0.580;2022-09-13T08:06:25;3.70;;;2.22;;
69991;SDS011;57332;51.320;-0.580;2022-09-13T08:08:53;6.05;;;2.20;;
69991;SDS011;57332;51.320;-0.580;2022-09-13T08:11:21;3.20;;;2.08;;
69991;SDS011;57332;51.320;-0.580;2022-09-13T08:13:48;4.03;;;1.95;;
69991;SDS011;57332;51.320;-0.580;2022-09-13T08:16:17;3.95;;;1.90;;
69991;SDS011;57332;51.320;-0.580;2022-09-13T08:18:48;2.97;;;1.50;;
69991;SDS011;57332;51.320;-0.580;2022-09-13T08:21:15;2.92;;;1.60;;
69991;SDS011;57332;51.320;-0.580;2022-09-13T08:23:42;3.97;;;1.30;;
69991;SDS011;57332;51.320;-0.580;2022-09-13T08:26:09;2.78;;;1.67;;
69991;SDS011;57332;51.320;-0.580;2022-09-13T08:28:37;4.97;;;1.52;;
69991;SDS011;57332;51.320;-0.580;2022-09-13T08:31:06;3.50;;;1.73;;
69991;SDS011;57332;51.320;-0.580;2022-09-13T08:33:34;3.47;;;1.48;;
69991;SDS011;57332;51.320;-0.580;2022-09-13T08:36:01;3.88;;;1.70;;
69991;SDS011;57332;51.320;-0.580;2022-09-13T08:38:28;3.92;;;1.58;;
69991;SDS011;57332;51.320;-0.580;2022-09-13T08:41:00;2.40;;;1.33;;
69991;SDS011;57332;51.320;-0.580;2022-09-13T08:46:03;1.67;;;1.15;;
69991;SDS011;57332;51.320;-0.580;2022-09-13T08:48:32;2.33;;;1.40;;
69991;SDS011;57332;51.320;-0.580;2022-09-13T08:51:04;2.47;;;1.25;;
69991;SDS011;57332;51.320;-0.580;2022-09-13T08:53:43;4.35;;;1.40;;
69991;SDS011;57332;51.320;-0.580;2022-09-13T08:56:12;3.65;;;1.40;;
69991;SDS011;57332;51.320;-0.580;2022-09-13T09:06:27;2.58;;;1.30;;
69991;SDS011;57332;51.320;-0.580;2022-09-13T09:08:58;2.75;;;1.20;;
69991;SDS011;57332;51.320;-0.580;2022-09-13T09:14:04;3.63;;;1.50;;
69991;SDS011;57332;51.320;-0.580;2022-09-13T09:16:34;3.63;;;1.45;;
69991;SDS011;57332;51.320;-0.580;2022-09-13T09:19:39;2.92;;;1.33;;
69991;SDS011;57332;51.320;-0.580;2022-09-13T09:22:20;3.47;;;1.48;;
69991;SDS011;57332;51.320;-0.580;2022-09-13T09:24:51;4.43;;;1.50;;
69991;SDS011;57332;51.320;-0.580;2022-09-13T09:27:22;5.18;;;1.60;;
69991;SDS011;57332;51.320;-0.580;2022-09-13T09:29:54;3.33;;;1.60;;
69991;SDS011;57332;51.320;-0.580;2022-09-13T09:40:19;3.58;;;1.55;;
69991;SDS011;57332;51.320;-0.580;2022-09-13T09:42:56;2.30;;;1.50;;
69991;SDS011;57332;51.320;-0.580;2022-09-13T09:45:27;3.40;;;1.85;;
69991;SDS011;57332;51.320;-0.580;2022-09-13T09:47:59;3.33;;;1.95;;
69991;SDS011;57332;51.320;-0.580;2022-09-13T09:50:38;2.97;;;1.40;;
69991;SDS011;57332;51.320;-0.580;2022-09-13T09:53:26;4.53;;;1.95;;
69991;SDS011;57332;51.320;-0.580;2022-09-13T09:59:34;4.68;;;1.80;;
69991;SDS011;57332;51.320;-0.580;2022-09-13T10:02:12;3.50;;;1.70;;
69991;SDS011;57332;51.320;-0.580;2022-09-13T10:04:40;3.78;;;1.80;;
69991;SDS011;57332;51.320;-0.580;2022-09-13T10:07:17;3.58;;;1.90;;
69991;SDS011;57332;51.320;-0.580;2022-09-13T10:09:56;4.90;;;1.80;;
69991;SDS011;57332;51.320;-0.580;2022-09-13T10:12:29;3.45;;;1.70;;
69991;SDS011;57332;51.320;-0.580;2022-09-13T10:15:19;4.45;;;1.90;;
69991;SDS011;57332;51.320;-0.580;2022-09-13T10:18:02;7.75;;;1.73;;
69991;SDS011;57332;51.320;-0.580;2022-09-13T10:20:30;5.70;;;2.22;;
69991;SDS011;57332;51.320;-0.580;2022-09-13T10:25:40;6.38;;;2.42;;
69991;SDS011;57332;51.320;-0.580;2022-09-13T10:28:14;4.65;;;2.10;;
69991;SDS011;57332;51.320;-0.580;2022-09-13T10:30:53;6.03;;;2.50;;
69991;SDS011;57332;51.320;-0.580;2022-09-13T10:35:59;3.53;;;1.92;;
69991;SDS011;57332;51.320;-0.580;2022-09-13T10:38:36;5.15;;;2.20;;
69991;SDS011;57332;51.320;-0.580;2022-09-13T10:41:10;3.53;;;2.10;;
69991;SDS011;57332;51.320;-0.580;2022-09-13T10:43:47;6.88;;;2.28;;
69991;SDS011;57332;51.320;-0.580;2022-09-13T10:46:35;5.05;;;2.20;;
69991;SDS011;57332;51.320;-0.580;2022-09-13T10:52:26;5.65;;;2.15;;
69991;SDS011;57332;51.320;-0.580;2022-09-13T10:54:53;3.95;;;2.10;;
69991;SDS011;57332;51.320;-0.580;2022-09-13T10:57:35;5.75;;;2.47;;
69991;SDS011;57332;51.320;-0.580;2022-09-13T11:00:06;3.80;;;2.47;;
69991;SDS011;57332;51.320;-0.580;2022-09-13T11:13:13;6.85;;;2.80;;
69991;SDS011;57332;51.320;-0.580;2022-09-13T11:36:14;6.30;;;2.78;;
69991;SDS011;57332;51.320;-0.580;2022-09-13T11:41:36;5.00;;;2.60;;
69991;SDS011;57332;51.320;-0.580;2022-09-13T11:46:59;6.28;;;2.90;;
69991;SDS011;57332;51.320;-0.580;2022-09-13T11:52:05;6.72;;;3.13;;
69991;SDS011;57332;51.320;-0.580;2022-09-13T11:57:05;5.93;;;2.63;;
69991;SDS011;57332;51.320;-0.580;2022-09-13T12:04:59;6.18;;;3.50;;
69991;SDS011;57332;51.320;-0.580;2022-09-13T12:07:54;8.02;;;3.20;;
69991;SDS011;57332;51.320;-0.580;2022-09-13T12:10:28;5.55;;;2.88;;
69991;SDS011;57332;51.320;-0.580;2022-09-13T12:12:56;5.57;;;3.25;;
69991;SDS011;57332;51.320;-0.580;2022-09-13T12:15:37;7.43;;;3.05;;
69991;SDS011;57332;51.320;-0.580;2022-09-13T12:20:39;6.90;;;3.45;;
69991;SDS011;57332;51.320;-0.580;2022-09-13T12:23:11;5.93;;;3.72;;
69991;SDS011;57332;51.320;-0.580;2022-09-13T12:26:23;7.95;;;3.70;;
69991;SDS011;57332;51.320;-0.580;2022-09-13T12:28:53;7.70;;;3.78;;
69991;SDS011;57332;51.320;-0.580;2022-09-13T12:31:26;6.85;;;4.15;;
69991;SDS011;57332;51.320;-0.580;2022-09-13T12:33:54;6.60;;;3.70;;
69991;SDS011;57332;51.320;-0.580;2022-09-13T12:39:51;5.93;;;3.60;;
69991;SDS011;57332;51.320;-0.580;2022-09-13T12:55:55;7.90;;;4.55;;
69991;SDS011;57332;51.320;-0.580;2022-09-13T13:03:57;10.00;;;4.57;;
69991;SDS011;57332;51.320;-0.580;2022-09-13T13:06:29;7.13;;;4.15;;
69991;SDS011;57332;51.320;-0.580;2022-09-13T13:08:59;7.43;;;3.80;;
69991;SDS011;57332;51.320;-0.580;2022-09-13T13:11:27;9.77;;;4.30;;
69991;SDS011;57332;51.320;-0.580;2022-09-13T13:13:58;8.57;;;4.45;;
69991;SDS011;57332;51.320;-0.580;2022-09-13T13:18:58;9.05;;;4.65;;
69991;SDS011;57332;51.320;-0.580;2022-09-13T13:26:42;11.98;;;4.80;;
69991;SDS011;57332;51.320;-0.580;2022-09-13T13:31:37;9.05;;;4.50;;
69991;SDS011;57332;51.320;-0.580;2022-09-13T13:41:54;12.20;;;4.72;;
69991;SDS011;57332;51.320;-0.580;2022-09-13T13:46:52;10.32;;;6.30;;
69991;SDS011;57332;51.320;-0.580;2022-09-13T13:57:04;9.73;;;5.40;;
69991;SDS011;57332;51.320;-0.580;2022-09-13T13:59:46;10.25;;;6.72;;
69991;SDS011;57332;51.320;-0.580;2022-09-13T14:02:20;11.35;;;6.85;;
69991;SDS011;57332;51.320;-0.580;2022-09-13T14:07:29;12.18;;;6.88;;
69991;SDS011;57332;51.320;-0.580;2022-09-13T14:20:56;13.65;;;7.35;;
69991;SDS011;57332;51.320;-0.580;2022-09-13T14:23:25;13.63;;;7.63;;
69991;SDS011;57332;51.320;-0.580;2022-09-13T14:25:55;12.18;;;7.75;;
69991;SDS011;57332;51.320;-0.580;2022-09-13T14:28:26;13.32;;;8.27;;
69991;SDS011;57332;51.320;-0.580;2022-09-13T14:30:55;15.43;;;8.95;;
69991;SDS011;57332;51.320;-0.580;2022-09-13T14:33:33;13.13;;;8.45;;
69991;SDS011;57332;51.320;-0.580;2022-09-13T14:36:07;12.57;;;8.38;;
69991;SDS011;57332;51.320;-0.580;2022-09-13T14:38:34;14.25;;;8.13;;
69991;SDS011;57332;51.320;-0.580;2022-09-13T14:41:10;13.43;;;6.63;;
69991;SDS011;57332;51.320;-0.580;2022-09-13T14:43:39;14.77;;;7.18;;
69991;SDS011;57332;51.320;-0.580;2022-09-13T14:46:26;12.63;;;6.45;;
69991;SDS011;57332;51.320;-0.580;2022-09-13T14:48:59;12.77;;;6.03;;
69991;SDS011;57332;51.320;-0.580;2022-09-13T14:51:32;11.43;;;6.70;;
69991;SDS011;57332;51.320;-0.580;2022-09-13T14:54:20;10.43;;;5.43;;
69991;SDS011;57332;51.320;-0.580;2022-09-13T14:56:51;13.68;;;6.93;;
69991;SDS011;57332;51.320;-0.580;2022-09-13T15:02:20;12.18;;;7.05;;
69991;SDS011;57332;51.320;-0.580;2022-09-13T15:04:56;12.40;;;6.57;;
69991;SDS011;57332;51.320;-0.580;2022-09-13T15:07:33;12.45;;;6.25;;
69991;SDS011;57332;51.320;-0.580;2022-09-13T15:20:45;13.07;;;6.93;;
69991;SDS011;57332;51.320;-0.580;2022-09-13T15:23:41;12.30;;;6.55;;
69991;SDS011;57332;51.320;-0.580;2022-09-13T15:26:18;12.18;;;6.40;;
69991;SDS011;57332;51.320;-0.580;2022-09-13T15:28:56;11.45;;;6.13;;
69991;SDS011;57332;51.320;-0.580;2022-09-13T15:31:40;12.05;;;6.15;;
69991;SDS011;57332;51.320;-0.580;2022-09-13T15:34:31;12.88;;;6.57;;
69991;SDS011;57332;51.320;-0.580;2022-09-13T15:37:12;12.95;;;6.30;;
69991;SDS011;57332;51.320;-0.580;2022-09-13T15:39:49;13.00;;;7.20;;
69991;SDS011;57332;51.320;-0.580;2022-09-13T15:42:28;11.57;;;6.72;;
69991;SDS011;57332;51.320;-0.580;2022-09-13T15:44:55;12.30;;;7.28;;
69991;SDS011;57332;51.320;-0.580;2022-09-13T15:47:22;11.23;;;6.55;;
69991;SDS011;57332;51.320;-0.580;2022-09-13T15:49:49;11.52;;;6.85;;
69991;SDS011;57332;51.320;-0.580;2022-09-13T15:52:18;12.07;;;6.95;;
69991;SDS011;57332;51.320;-0.580;2022-09-13T15:54:46;10.80;;;6.47;;
69991;SDS011;57332;51.320;-0.580;2022-09-13T15:57:17;13.30;;;6.50;;
69991;SDS011;57332;51.320;-0.580;2022-09-13T15:59:44;10.85;;;7.30;;
69991;SDS011;57332;51.320;-0.580;2022-09-13T16:04:48;12.20;;;7.00;;
69991;SDS011;57332;51.320;-0.580;2022-09-13T16:07:15;10.63;;;6.93;;
69991;SDS011;57332;51.320;-0.580;2022-09-13T16:09:43;13.68;;;7.75;;
69991;SDS011;57332;51.320;-0.580;2022-09-13T16:12:11;15.82;;;7.97;;
69991;SDS011;57332;51.320;-0.580;2022-09-13T16:14:38;14.07;;;7.70;;
69991;SDS011;57332;51.320;-0.580;2022-09-13T16:17:06;15.20;;;7.90;;
69991;SDS011;57332;51.320;-0.580;2022-09-13T16:19:33;11.77;;;7.00;;
69991;SDS011;57332;51.320;-0.580;2022-09-13T16:22:00;12.13;;;7.38;;
69991;SDS011;57332;51.320;-0.580;2022-09-13T16:24:27;12.23;;;7.15;;
69991;SDS011;57332;51.320;-0.580;2022-09-13T16:26:54;11.77;;;6.97;;
69991;SDS011;57332;51.320;-0.580;2022-09-13T16:29:21;14.00;;;7.40;;
69991;SDS011;57332;51.320;-0.580;2022-09-13T16:31:48;12.98;;;7.13;;
69991;SDS011;57332;51.320;-0.580;2022-09-13T16:34:15;8.65;;;5.68;;
69991;SDS011;57332;51.320;-0.580;2022-09-13T16:36:43;11.25;;;5.93;;
69991;SDS011;57332;51.320;-0.580;2022-09-13T16:39:11;12.77;;;6.88;;
69991;SDS011;57332;51.320;-0.580;2022-09-13T16:41:48;10.20;;;6.93;;
69991;SDS011;57332;51.320;-0.580;2022-09-13T16:44:15;12.90;;;7.25;;
69991;SDS011;57332;51.320;-0.580;2022-09-13T16:46:43;11.05;;;6.82;;
69991;SDS011;57332;51.320;-0.580;2022-09-13T16:49:10;10.38;;;6.45;;
69991;SDS011;57332;51.320;-0.580;2022-09-13T16:51:40;12.70;;;7.00;;
69991;SDS011;57332;51.320;-0.580;2022-09-13T16:54:09;11.68;;;6.97;;
69991;SDS011;57332;51.320;-0.580;2022-09-13T16:56:36;11.82;;;7.22;;
69991;SDS011;57332;51.320;-0.580;2022-09-13T16:59:05;13.60;;;7.53;;
69991;SDS011;57332;51.320;-0.580;2022-09-13T17:01:32;12.23;;;7.25;;
69991;SDS011;57332;51.320;-0.580;2022-09-13T17:04:00;14.70;;;7.38;;
69991;SDS011;57332;51.320;-0.580;2022-09-13T17:06:32;12.43;;;7.13;;
69991;SDS011;57332;51.320;-0.580;2022-09-13T17:09:00;12.25;;;6.85;;
69991;SDS011;57332;51.320;-0.580;2022-09-13T17:11:28;11.18;;;6.45;;
69991;SDS011;57332;51.320;-0.580;2022-09-13T17:13:56;13.55;;;7.15;;
69991;SDS011;57332;51.320;-0.580;2022-09-13T17:18:52;11.60;;;6.20;;
69991;SDS011;57332;51.320;-0.580;2022-09-13T17:21:20;13.27;;;7.35;;
69991;SDS011;57332;51.320;-0.580;2022-09-13T17:23:47;12.93;;;6.70;;
69991;SDS011;57332;51.320;-0.580;2022-09-13T17:26:18;13.93;;;7.72;;
69991;SDS011;57332;51.320;-0.580;2022-09-13T17:28:45;12.30;;;7.20;;
69991;SDS011;57332;51.320;-0.580;2022-09-13T17:31:12;12.90;;;7.30;;
69991;SDS011;57332;51.320;-0.580;2022-09-13T17:33:39;12.10;;;6.80;;
69991;SDS011;57332;51.320;-0.580;2022-09-13T17:36:06;11.95;;;6.63;;
69991;SDS011;57332;51.320;-0.580;2022-09-13T17:38:34;11.32;;;6.55;;
69991;SDS011;57332;51.320;-0.580;2022-09-13T17:41:03;11.73;;;6.10;;
69991;SDS011;57332;51.320;-0.580;2022-09-13T17:43:30;12.15;;;6.50;;
69991;SDS011;57332;51.320;-0.580;2022-09-13T17:46:01;11.18;;;7.38;;
69991;SDS011;57332;51.320;-0.580;2022-09-13T17:51:09;12.95;;;7.00;;
69991;SDS011;57332;51.320;-0.580;2022-09-13T17:53:37;12.23;;;6.43;;
69991;SDS011;57332;51.320;-0.580;2022-09-13T17:56:05;12.57;;;7.00;;
69991;SDS011;57332;51.320;-0.580;2022-09-13T17:58:33;11.63;;;6.85;;
69991;SDS011;57332;51.320;-0.580;2022-09-13T18:01:04;15.55;;;7.43;;
69991;SDS011;57332;51.320;-0.580;2022-09-13T18:03:32;13.57;;;7.07;;
69991;SDS011;57332;51.320;-0.580;2022-09-13T18:05:59;16.13;;;7.40;;
69991;SDS011;57332;51.320;-0.580;2022-09-13T18:08:27;12.27;;;6.57;;
69991;SDS011;57332;51.320;-0.580;2022-09-13T18:11:00;12.05;;;7.10;;
69991;SDS011;57332;51.320;-0.580;2022-09-13T18:13:39;13.98;;;5.72;;
69991;SDS011;57332;51.320;-0.580;2022-09-13T18:16:10;10.43;;;5.63;;
69991;SDS011;57332;51.320;-0.580;2022-09-13T18:18:43;12.00;;;5.93;;
69991;SDS011;57332;51.320;-0.580;2022-09-13T18:21:12;11.00;;;6.10;;
69991;SDS011;57332;51.320;-0.580;2022-09-13T18:23:45;13.48;;;4.63;;
69991;SDS011;57332;51.320;-0.580;2022-09-13T18:26:13;8.27;;;4.50;;
69991;SDS011;57332;51.320;-0.580;2022-09-13T18:28:41;9.27;;;5.53;;
69991;SDS011;57332;51.320;-0.580;2022-09-13T18:31:12;7.63;;;4.60;;
69991;SDS011;57332;51.320;-0.580;2022-09-13T18:33:40;7.18;;;3.50;;
69991;SDS011;57332;51.320;-0.580;2022-09-13T18:36:08;10.40;;;4.18;;
69991;SDS011;57332;51.320;-0.580;2022-09-13T18:41:06;7.20;;;3.80;;
69991;SDS011;57332;51.320;-0.580;2022-09-13T18:43:34;7.00;;;3.40;;
69991;SDS011;57332;51.320;-0.580;2022-09-13T18:46:05;6.68;;;3.30;;
69991;SDS011;57332;51.320;-0.580;2022-09-13T18:48:34;7.25;;;2.92;;
69991;SDS011;57332;51.320;-0.580;2022-09-13T18:51:04;7.32;;;3.60;;
69991;SDS011;57332;51.320;-0.580;2022-09-13T18:53:32;5.80;;;3.20;;